Time;durP1;ratioP1;P1;durP2;ratioP2;P2;SDS_P1;SDS_P2;PMS_P1;PMS_P2;Temp;Humidity;BMP_temperature;BMP_pressure;BME280_temperature;BME280_humidity;BME280_pressure;Samples;Min_cycle;Max_cycle;Signal;HPM_P1;HPM_P2
2021/12/16 00:09:26;;;;;;;;;60.00;48.00;;;;;15.51;69.71;103196.50;5062068;28;62228;-75
2021/12/16 00:33:17;;;;;;;;;60.75;47.00;;;;;15.26;70.42;103199.31;5061907;28;61841;-76
2021/12/16 00:35:49;;;;;;;;;62.75;50.25;;;;;15.30;70.29;103203.06;5060767;28;62217;-75
2021/12/16 00:38:14;;;;;;;;;69.00;48.50;;;;;15.25;70.50;103200.13;5061130;28;61881;-75
2021/12/16 00:40:42;;;;;;;;;64.50;50.25;;;;;15.27;70.42;103194.94;5060096;28;61825;-75
2021/12/16 00:45:45;;;;;;;;;60.25;45.50;;;;;15.28;70.21;103191.47;5061670;28;61818;-76
2021/12/16 00:56:02;;;;;;;;;63.75;51.25;;;;;15.30;70.09;103193.41;5064922;28;61936;-76
2021/12/16 00:58:36;;;;;;;;;57.75;43.50;;;;;15.23;70.53;103188.53;5063890;28;62622;-75
2021/12/16 01:01:33;;;;;;;;;62.00;50.50;;;;;15.24;70.40;103185.06;5064989;28;61770;-76
2021/12/16 01:04:19;;;;;;;;;58.25;48.75;;;;;15.25;70.44;103178.97;5064776;28;61757;-75
2021/12/16 01:34:07;;;;;;;;;59.25;48.25;;;;;15.26;71.09;103174.59;5064596;28;61852;-75
2021/12/16 01:57:22;;;;;;;;;56.25;42.50;;;;;15.13;71.14;103194.97;5063798;28;61809;-76
2021/12/16 01:59:58;;;;;;;;;55.50;44.25;;;;;15.25;71.24;103194.84;5084602;28;61968;-75
2021/12/16 02:02:36;;;;;;;;;61.25;45.50;;;;;15.24;71.16;103210.63;5099475;27;64008;-75
2021/12/16 02:05:25;;;;;;;;;61.00;45.00;;;;;15.21;71.20;103206.06;5083988;27;61788;-75
2021/12/16 02:08:38;;;;;;;;;49.75;39.75;;;;;15.18;71.26;103204.94;5084086;28;61996;-75
2021/12/16 02:10:47;;;;;;;;;57.50;44.75;;;;;15.18;71.07;103203.19;5083360;27;62018;-75
2021/12/16 02:30:09;;;;;;;;;54.50;42.25;;;;;15.28;70.51;103210.91;5102132;27;62164;-75
2021/12/16 02:37:31;;;;;;;;;54.25;41.00;;;;;15.20;71.12;103213.88;5102043;27;61830;-76
2021/12/16 02:39:56;;;;;;;;;57.25;44.50;;;;;15.24;71.37;103211.53;5101578;27;62045;-75
2021/12/16 02:42:34;;;;;;;;;55.75;45.25;;;;;15.28;71.45;103210.91;5101790;27;61814;-75
2021/12/16 02:50:24;;;;;;;;;58.00;43.75;;;;;15.25;70.99;103204.50;5101979;27;61873;-75
2021/12/16 02:52:49;;;;;;;;;57.25;43.75;;;;;15.12;71.14;103201.09;5101625;27;62043;-76
2021/12/16 02:55:19;;;;;;;;;53.00;42.00;;;;;15.17;71.38;103209.31;5100338;27;62066;-76
2021/12/16 02:57:59;;;;;;;;;47.50;40.50;;;;;15.20;71.76;103213.88;5089953;27;62274;-76
2021/12/16 03:00:29;;;;;;;;;54.50;45.00;;;;;15.26;71.29;103208.97;5063477;28;61874;-75
2021/12/16 03:02:55;;;;;;;;;61.00;44.50;;;;;15.25;71.28;103213.38;5063305;28;62028;-76
2021/12/16 03:05:22;;;;;;;;;55.50;43.00;;;;;15.27;71.44;103216.09;5062666;28;62639;-75
2021/12/16 03:07:50;;;;;;;;;54.50;44.00;;;;;15.21;71.21;103207.75;5063137;28;61754;-75
2021/12/16 03:13:05;;;;;;;;;57.25;46.00;;;;;15.17;70.95;103211.03;5062959;28;61840;-75
2021/12/16 03:18:19;;;;;;;;;55.25;46.75;;;;;15.23;71.52;103217.66;5062477;28;61966;-75
2021/12/16 03:20:50;;;;;;;;;55.00;41.50;;;;;15.18;71.37;103216.41;5063011;28;62285;-75
2021/12/16 03:31:27;;;;;;;;;55.50;43.25;;;;;15.30;71.25;103224.25;5062840;28;62152;-75
2021/12/16 03:37:11;;;;;;;;;59.50;44.75;;;;;15.13;70.92;103215.22;5062297;28;62400;-75
2021/12/16 03:39:37;;;;;;;;;56.50;46.75;;;;;15.07;71.37;103214.81;5062366;28;61961;-76
2021/12/16 03:42:03;;;;;;;;;52.00;43.00;;;;;15.04;71.22;103215.53;5062352;28;62296;-75
2021/12/16 03:44:38;;;;;;;;;60.25;45.00;;;;;14.98;71.50;103209.84;5062986;28;61805;-75
2021/12/16 03:47:04;;;;;;;;;56.00;43.25;;;;;15.10;71.88;103215.00;5060603;28;64912;-75
2021/12/16 03:49:30;;;;;;;;;58.25;46.00;;;;;15.12;71.87;103216.00;5062475;28;61814;-76
2021/12/16 03:52:06;;;;;;;;;50.50;43.00;;;;;15.23;71.77;103220.28;5062424;28;61929;-75
2021/12/16 03:54:50;;;;;;;;;57.50;42.00;;;;;15.29;71.74;103217.09;5061139;28;62056;-75
2021/12/16 03:57:19;;;;;;;;;54.75;43.00;;;;;15.31;71.24;103210.19;5062079;28;64883;-76
2021/12/16 03:59:45;;;;;;;;;61.00;45.50;;;;;15.27;71.37;103209.06;5081210;28;62051;-76
2021/12/16 04:02:16;;;;;;;;;56.25;44.75;;;;;15.23;71.28;103217.66;5082646;27;61750;-75
2021/12/16 04:04:43;;;;;;;;;50.50;38.75;;;;;15.27;71.48;103221.38;5082932;27;61754;-75
2021/12/16 04:07:10;;;;;;;;;51.50;38.00;;;;;15.29;71.80;103217.09;5081824;27;61833;-75
2021/12/16 04:09:36;;;;;;;;;57.25;44.75;;;;;15.34;71.51;103219.25;5081158;28;61851;-76
2021/12/16 04:12:09;;;;;;;;;54.00;43.75;;;;;15.36;71.52;103219.34;5080804;27;61977;-76
2021/12/16 04:14:37;;;;;;;;;56.25;42.50;;;;;15.37;71.57;103215.88;5082731;27;61920;-75
2021/12/16 04:17:03;;;;;;;;;60.75;47.75;;;;;15.37;71.19;103222.91;5081829;28;61992;-75
2021/12/16 04:19:32;;;;;;;;;52.75;43.50;;;;;15.30;71.44;103225.16;5082450;27;61920;-75
2021/12/16 04:22:09;;;;;;;;;54.75;43.00;;;;;15.23;71.47;103217.66;5081971;27;61644;-74
2021/12/16 04:24:36;;;;;;;;;57.50;45.00;;;;;15.30;71.59;103221.59;5081262;27;62170;-73
2021/12/16 04:27:02;;;;;;;;;53.00;42.75;;;;;15.34;71.60;103224.53;5081331;28;61795;-74
2021/12/16 04:29:28;;;;;;;;;54.25;45.75;;;;;15.38;71.75;103224.72;5083685;27;61924;-74
2021/12/16 04:31:55;;;;;;;;;56.25;45.75;;;;;15.41;71.69;103225.84;5086064;27;61880;-74
2021/12/16 04:34:21;;;;;;;;;63.75;47.00;;;;;15.44;71.67;103227.75;5101707;27;61975;-74
2021/12/16 04:36:47;;;;;;;;;64.00;51.50;;;;;15.36;71.30;103224.66;5085056;27;62531;-74
2021/12/16 04:39:17;;;;;;;;;54.50;45.50;;;;;15.32;71.81;103228.81;5085662;27;62097;-74
2021/12/16 04:41:44;;;;;;;;;61.00;46.50;;;;;15.33;71.94;103229.72;5084468;27;61933;-74
2021/12/16 04:44:14;;;;;;;;;53.00;42.75;;;;;15.40;72.03;103231.03;5084215;28;61782;-74
2021/12/16 04:46:40;;;;;;;;;52.25;40.00;;;;;15.42;71.99;103227.66;5085228;27;62709;-74
2021/12/16 04:49:08;;;;;;;;;60.00;46.25;;;;;15.41;71.95;103233.78;5085770;27;62252;-74
2021/12/16 04:51:37;;;;;;;;;61.25;48.00;;;;;15.47;72.07;103236.81;5085534;27;61796;-74
2021/12/16 04:54:04;;;;;;;;;46.50;40.25;;;;;15.43;71.70;103231.25;5084169;28;62116;-74
2021/12/16 04:56:29;;;;;;;;;57.00;43.75;;;;;15.42;71.59;103235.59;5083131;28;63887;-74
2021/12/16 04:58:56;;;;;;;;;49.25;43.75;;;;;15.32;71.92;103238.50;5069113;28;62091;-74
2021/12/16 05:01:22;;;;;;;;;50.00;41.75;;;;;15.25;72.08;103239.84;5064933;28;61772;-73
2021/12/16 05:03:53;;;;;;;;;57.50;43.00;;;;;15.12;72.17;103242.47;5065401;28;61965;-73
2021/12/16 05:06:24;;;;;;;;;54.25;45.75;;;;;15.15;72.84;103234.75;5064269;28;62404;-74
2021/12/16 05:08:52;;;;;;;;;64.50;48.75;;;;;15.17;72.46;103246.34;5064964;28;62204;-73
2021/12/16 05:11:17;;;;;;;;;56.25;44.50;;;;;15.06;72.36;103244.72;5064774;28;61701;-74
2021/12/16 05:13:45;;;;;;;;;58.75;45.00;;;;;14.97;72.65;103245.03;5065260;28;61787;-74
2021/12/16 05:16:11;;;;;;;;;54.25;43.25;;;;;14.89;73.28;103243.63;5062885;28;64472;-74
2021/12/16 05:18:38;;;;;;;;;49.25;40.00;;;;;14.93;73.55;103240.34;5064948;28;62097;-74
2021/12/16 05:21:27;;;;;;;;;60.75;44.75;;;;;15.00;73.28;103254.91;5064981;28;62615;-74
2021/12/16 05:26:36;;;;;;;;;58.00;44.75;;;;;14.98;73.15;103243.31;5063934;28;61941;-76
2021/12/16 05:29:02;;;;;;;;;56.25;45.25;;;;;15.06;73.35;103252.66;5064910;28;61791;-76
2021/12/16 05:31:28;;;;;;;;;60.25;44.25;;;;;15.11;73.10;103253.88;5064744;28;61776;-76
2021/12/16 05:33:56;;;;;;;;;58.00;42.75;;;;;15.12;73.32;103261.00;5064909;28;62026;-76
2021/12/16 05:36:22;;;;;;;;;53.25;44.00;;;;;15.08;73.08;103261.59;5063735;28;61795;-76
2021/12/16 05:38:48;;;;;;;;;68.50;48.00;;;;;14.98;73.24;103256.53;5064602;28;62383;-76
2021/12/16 05:41:18;;;;;;;;;57.75;44.25;;;;;14.99;73.73;103264.56;5064221;28;61831;-76
2021/12/16 05:43:44;;;;;;;;;55.00;41.50;;;;;14.94;73.52;103266.00;5064958;28;61888;-76
2021/12/16 05:46:12;;;;;;;;;59.00;43.75;;;;;14.90;73.33;103275.44;5062427;28;64876;-76
2021/12/16 05:48:40;;;;;;;;;55.50;43.00;;;;;14.84;73.93;103271.47;5064359;28;62029;-75
2021/12/16 05:51:10;;;;;;;;;57.25;46.75;;;;;14.88;74.07;103268.22;5064313;28;61724;-76
2021/12/16 05:53:36;;;;;;;;;58.25;43.00;;;;;14.89;73.88;103270.97;5064515;28;62304;-76
2021/12/16 05:56:03;;;;;;;;;56.00;44.25;;;;;14.91;73.97;103265.81;5063335;28;63094;-76
2021/12/16 05:58:29;;;;;;;;;47.75;39.75;;;;;14.89;73.99;103270.97;5062575;28;61862;-76
2021/12/16 06:01:00;;;;;;;;;57.00;45.00;;;;;14.98;74.11;103273.31;5064262;28;61922;-76
2021/12/16 06:03:26;;;;;;;;;66.00;46.75;;;;;15.03;74.00;103278.91;5064202;28;61967;-76
2021/12/16 06:05:52;;;;;;;;;64.25;48.50;;;;;15.02;73.51;103274.44;5062146;28;63633;-76
2021/12/16 06:08:18;;;;;;;;;59.25;46.25;;;;;14.99;73.59;103276.88;5064019;28;62075;-76
2021/12/16 06:13:12;;;;;;;;;49.25;36.00;;;;;15.06;73.86;103293.28;5063859;28;61779;-76
2021/12/16 06:26:33;;;;;;;;;68.25;49.00;;;;;15.05;73.79;103283.47;5063058;28;61863;-77
2021/12/16 06:28:59;;;;;;;;;55.50;46.00;;;;;15.09;73.63;103285.53;5063668;28;61873;-76
2021/12/16 06:31:25;;;;;;;;;57.75;45.50;;;;;15.13;73.57;103282.25;5063595;28;61744;-76
2021/12/16 06:33:50;;;;;;;;;51.00;42.25;;;;;15.13;73.45;103278.72;5063765;28;61763;-76
2021/12/16 06:36:16;;;;;;;;;47.25;38.00;;;;;15.08;73.41;103274.81;5061492;28;63799;-76
2021/12/16 06:38:41;;;;;;;;;56.50;46.00;;;;;15.10;73.53;103271.50;5063180;28;61793;-76
2021/12/16 06:41:07;;;;;;;;;53.00;43.00;;;;;15.14;73.58;103283.16;5063555;28;61890;-75
2021/12/16 06:43:33;;;;;;;;;58.00;45.75;;;;;15.15;73.28;103279.72;5062170;28;61937;-74
2021/12/16 06:46:01;;;;;;;;;59.75;45.75;;;;;15.12;73.73;103272.50;5062666;28;61886;-74
2021/12/16 06:48:31;;;;;;;;;62.25;43.00;;;;;15.17;73.31;103283.41;5062921;28;61693;-75
2021/12/16 06:51:05;;;;;;;;;60.00;47.25;;;;;15.16;73.34;103278.00;5063294;28;61886;-76
2021/12/16 06:53:44;;;;;;;;;68.75;50.25;;;;;15.17;73.75;103298.31;5060899;28;61803;-74
2021/12/16 06:56:17;;;;;;;;;65.75;52.25;;;;;15.19;73.69;103292.34;5062189;28;62904;-74
2021/12/16 06:58:48;;;;;;;;;58.25;49.25;;;;;15.11;73.26;103297.13;5076650;28;61936;-75
2021/12/16 07:04:21;;;;;;;;;59.00;45.75;;;;;15.13;73.87;103303.44;5081127;28;62075;-75
2021/12/16 07:06:46;;;;;;;;;60.50;48.75;;;;;15.17;73.84;103304.56;5079811;28;61974;-74
2021/12/16 07:09:16;;;;;;;;;58.50;42.00;;;;;15.21;73.37;103295.06;5063611;28;61962;-74
2021/12/16 07:11:43;;;;;;;;;58.75;44.50;;;;;15.24;73.63;103300.59;5063519;28;61893;-74
2021/12/16 07:14:14;;;;;;;;;61.75;46.50;;;;;15.26;73.60;103306.91;5063788;28;61942;-75
2021/12/16 07:16:41;;;;;;;;;67.00;48.50;;;;;15.29;73.83;103304.44;5079604;28;62013;-74
2021/12/16 07:19:06;;;;;;;;;54.25;45.00;;;;;15.28;73.55;103314.09;5080430;28;61840;-75
2021/12/16 07:21:37;;;;;;;;;59.00;45.50;;;;;15.27;73.44;103311.34;5080454;28;62280;-76
2021/12/16 07:24:05;;;;;;;;;60.50;47.00;;;;;15.30;73.96;103301.91;5080752;28;61767;-76
2021/12/16 07:26:31;;;;;;;;;57.00;44.00;;;;;15.26;73.57;103301.59;5058402;28;62857;-76
2021/12/16 07:28:56;;;;;;;;;57.50;44.75;;;;;15.31;73.39;103316.94;5059686;28;61845;-75
2021/12/16 07:31:22;;;;;;;;;58.75;48.00;;;;;15.28;73.51;103314.09;5059498;28;61974;-76
2021/12/16 07:33:47;;;;;;;;;57.25;45.25;;;;;15.34;73.52;103314.50;5059704;28;61896;-76
2021/12/16 07:36:18;;;;;;;;;58.00;44.50;;;;;15.34;73.75;103308.31;5042374;28;64862;-75
2021/12/16 07:38:44;;;;;;;;;65.25;48.75;;;;;15.29;73.47;103321.22;5050552;28;62199;-75
2021/12/16 07:41:09;;;;;;;;;65.25;50.25;;;;;15.20;73.44;103315.31;5040954;28;61998;-75
2021/12/16 07:46:19;;;;;;;;;64.75;47.25;;;;;15.34;73.81;103318.91;5041427;28;61830;-75
2021/12/16 07:48:45;;;;;;;;;60.00;44.75;;;;;15.35;73.42;103310.13;5041928;28;62120;-75
2021/12/16 07:51:10;;;;;;;;;61.50;46.75;;;;;15.36;73.17;103318.97;5041766;28;62193;-74
2021/12/16 07:53:37;;;;;;;;;64.00;49.75;;;;;15.37;73.33;103319.09;5040847;28;61786;-76
2021/12/16 07:56:04;;;;;;;;;67.25;50.25;;;;;15.36;73.44;103316.34;5054424;28;63677;-75
2021/12/16 07:58:30;;;;;;;;;59.25;45.25;;;;;15.28;73.36;103319.41;5060235;28;61980;-75
2021/12/16 08:00:56;;;;;;;;;61.00;46.00;;;;;15.31;73.12;103321.31;5061314;28;61676;-77
2021/12/16 08:03:23;;;;;;;;;64.50;51.00;;;;;15.36;73.49;103330.50;5062299;28;61766;-78
2021/12/16 08:05:54;;;;;;;;;64.75;51.00;;;;;15.36;73.42;103321.63;5059253;28;63832;-77
2021/12/16 08:08:20;;;;;;;;;66.25;48.75;;;;;15.27;73.49;103327.22;5062022;28;61823;-78
2021/12/16 08:10:46;;;;;;;;;61.75;45.00;;;;;15.26;73.74;103328.06;5061871;28;61762;-79
2021/12/16 08:13:13;;;;;;;;;70.25;52.00;;;;;15.33;73.87;103341.78;5062632;28;61714;-78
2021/12/16 08:15:41;;;;;;;;;68.00;54.25;;;;;15.36;73.43;103343.75;5059349;28;64190;-79
2021/12/16 08:18:06;;;;;;;;;64.00;48.50;;;;;15.34;73.30;103340.97;5060568;28;62065;-77
2021/12/16 08:20:32;;;;;;;;;68.00;51.00;;;;;15.40;73.83;103345.75;5060387;28;61945;-76
2021/12/16 08:22:58;;;;;;;;;60.50;47.00;;;;;15.41;73.31;103336.09;5062065;28;62061;-77
2021/12/16 08:25:26;;;;;;;;;59.25;47.50;;;;;15.40;73.47;103340.44;5061144;28;61966;-78
2021/12/16 08:27:52;;;;;;;;;56.25;43.25;;;;;15.36;73.28;103338.44;5060118;28;62342;-81
2021/12/16 08:30:21;;;;;;;;;60.00;47.75;;;;;15.31;73.40;103343.41;5061602;28;61997;-79
2021/12/16 08:32:48;;;;;;;;;61.00;45.25;;;;;15.27;73.73;103344.00;5060209;28;61849;-79
2021/12/16 08:35:13;;;;;;;;;66.00;47.50;;;;;15.21;73.80;103335.69;5061080;28;61876;-75
2021/12/16 08:37:39;;;;;;;;;61.25;48.75;;;;;15.26;73.76;103346.59;5060271;28;62005;-75
2021/12/16 08:40:17;;;;;;;;;64.75;51.25;;;;;15.41;73.89;103349.34;5061576;28;62098;-80
2021/12/16 08:42:44;;;;;;;;;61.25;48.75;;;;;15.47;73.77;103344.44;5061539;28;61798;-75
2021/12/16 08:45:14;;;;;;;;;65.00;50.75;;;;;15.51;73.39;103354.38;5060853;28;61803;-75
2021/12/16 08:47:40;;;;;;;;;61.75;48.00;;;;;15.48;73.13;103349.81;5061832;28;61978;-75
2021/12/16 08:50:09;;;;;;;;;57.50;46.75;;;;;15.56;73.08;103352.97;5059853;28;61879;-76
2021/12/16 08:52:35;;;;;;;;;64.00;49.50;;;;;15.55;73.03;103356.41;5060161;28;61969;-76
2021/12/16 08:55:00;;;;;;;;;63.75;50.25;;;;;15.49;73.17;103358.69;5060674;28;61944;-76
2021/12/16 08:57:28;;;;;;;;;71.00;54.25;;;;;15.59;73.46;103362.84;5060446;28;61841;-77
2021/12/16 08:59:54;;;;;;;;;54.75;46.75;;;;;15.49;72.72;103359.59;5059811;28;61897;-76
2021/12/16 09:02:20;;;;;;;;;71.50;54.50;;;;;15.43;73.15;103364.50;5061644;28;61900;-76
2021/12/16 09:04:46;;;;;;;;;69.25;53.00;;;;;15.54;73.07;103366.09;5060844;28;61976;-78
2021/12/16 09:07:15;;;;;;;;;66.50;56.50;;;;;15.54;72.97;103362.53;5061309;28;61775;-76
2021/12/16 09:09:43;;;;;;;;;71.75;53.75;;;;;15.56;73.00;103366.22;5061597;28;61808;-76
2021/12/16 09:15:07;;;;;;;;;68.50;52.75;;;;;15.63;73.28;103375.47;5061096;28;61902;-76
2021/12/16 09:17:33;;;;;;;;;68.00;51.25;;;;;15.73;73.32;103370.91;5055193;28;61969;-78
2021/12/16 09:19:59;;;;;;;;;78.00;54.50;;;;;15.76;72.27;103375.47;5059897;28;61768;-77
2021/12/16 09:22:26;;;;;;;;;66.75;53.50;;;;;15.77;72.50;103379.97;5049340;28;61872;-77
2021/12/16 09:24:56;;;;;;;;;64.00;51.75;;;;;15.72;72.63;103378.75;5063785;28;61843;-76
2021/12/16 09:27:22;;;;;;;;;64.75;48.50;;;;;15.73;72.69;103388.53;5063834;28;62229;-76
2021/12/16 09:29:48;;;;;;;;;69.25;51.75;;;;;15.81;72.63;103383.72;5064751;28;61887;-78
2021/12/16 09:32:15;;;;;;;;;70.75;51.00;;;;;15.80;71.93;103390.75;5063268;28;61747;-78
2021/12/16 09:34:43;;;;;;;;;70.25;52.00;;;;;15.77;72.49;103389.63;5063902;28;62445;-79
2021/12/16 09:37:08;;;;;;;;;68.25;56.50;;;;;15.78;72.62;103392.38;5064259;28;61868;-79
2021/12/16 09:39:36;;;;;;;;;68.75;54.75;;;;;15.89;72.85;103393.97;5064586;28;62215;-76
2021/12/16 09:42:03;;;;;;;;;75.50;56.50;;;;;15.94;72.36;103397.88;5063972;28;61728;-76
2021/12/16 09:44:29;;;;;;;;;69.50;55.75;;;;;15.88;71.93;103396.56;5063730;28;62736;-77
2021/12/16 09:46:58;;;;;;;;;62.75;49.25;;;;;15.89;71.96;103407.22;5063202;28;61892;-77
2021/12/16 09:49:23;;;;;;;;;72.50;55.00;;;;;16.00;72.09;103410.56;5059667;28;62117;-76
2021/12/16 09:51:52;;;;;;;;;70.25;53.25;;;;;16.05;71.88;103402.94;5044327;28;61913;-76
2021/12/16 09:54:24;;;;;;;;;66.00;53.00;;;;;16.07;71.85;103409.25;5061040;28;63688;-76
2021/12/16 09:56:52;;;;;;;;;73.50;55.00;;;;;16.10;72.17;103401.50;5063462;28;62128;-77
2021/12/16 09:59:20;;;;;;;;;70.25;53.75;;;;;16.19;72.01;103417.97;5060095;28;61819;-76
2021/12/16 10:01:48;;;;;;;;;74.50;58.00;;;;;16.23;71.33;103416.44;5042821;28;62162;-76
2021/12/16 10:04:19;;;;;;;;;63.75;52.00;;;;;16.27;72.01;103421.13;5061401;28;63274;-77
2021/12/16 10:06:47;;;;;;;;;70.25;55.00;;;;;16.23;70.82;103406.75;5063898;28;61912;-77
2021/12/16 10:09:14;;;;;;;;;72.75;54.00;;;;;16.25;71.52;103415.72;5063782;28;61980;-77
2021/12/16 10:11:43;;;;;;;;;73.50;55.00;;;;;16.34;71.90;103412.72;5063914;28;61743;-77
2021/12/16 10:19:28;;;;;;;;;70.50;54.50;;;;;16.47;70.74;103409.09;5063536;28;61833;-77
2021/12/16 10:22:14;;;;;;;;;69.50;54.00;;;;;16.43;70.39;103410.69;5063921;28;62269;-78
2021/12/16 10:24:39;;;;;;;;;62.75;51.75;;;;;16.43;70.09;103409.72;5061439;28;65034;-76
2021/12/16 10:27:07;;;;;;;;;65.75;51.75;;;;;16.50;70.46;103426.13;5062214;28;61957;-76
2021/12/16 10:29:49;;;;;;;;;64.00;51.75;;;;;16.56;70.84;103418.56;5062323;28;62221;-77
2021/12/16 10:32:41;;;;;;;;;76.00;57.00;;;;;16.55;69.84;103413.16;5063599;28;61829;-76
2021/12/16 10:35:14;;;;;;;;;63.25;49.00;;;;;16.49;70.25;103416.34;5062946;28;61812;-77
2021/12/16 10:37:53;;;;;;;;;72.25;52.00;;;;;16.51;70.13;103419.09;5063292;28;61859;-77
2021/12/16 10:40:40;;;;;;;;;62.75;50.50;;;;;16.61;70.07;103416.19;5063131;28;61825;-75
2021/12/16 10:43:30;;;;;;;;;59.50;48.25;;;;;16.71;70.33;103413.28;5063434;28;62052;-76
2021/12/16 10:45:58;;;;;;;;;63.00;49.50;;;;;16.77;70.10;103408.38;5062648;28;61890;-77
2021/12/16 10:48:28;;;;;;;;;61.00;50.00;;;;;16.79;68.97;103410.19;5063055;28;61823;-77
2021/12/16 10:51:05;;;;;;;;;70.75;52.50;;;;;16.77;68.99;103410.09;5063302;28;61994;-75
2021/12/16 10:53:48;;;;;;;;;68.25;53.00;;;;;16.74;69.11;103408.16;5062952;28;61870;-76
2021/12/16 10:56:15;;;;;;;;;63.75;49.75;;;;;16.76;69.29;103400.31;5062045;28;62856;-76
2021/12/16 10:58:58;;;;;;;;;71.75;57.50;;;;;16.83;69.58;103399.88;5058005;28;62038;-76
2021/12/16 11:01:44;;;;;;;;;68.75;56.00;;;;;16.93;69.00;103407.59;5041097;28;62053;-76
2021/12/16 11:04:43;;;;;;;;;71.00;52.75;;;;;16.90;69.01;103407.41;5040889;28;61752;-76
2021/12/16 11:07:11;;;;;;;;;69.00;53.75;;;;;17.01;69.39;103397.44;5040508;28;64843;-76
2021/12/16 11:09:44;;;;;;;;;66.75;50.50;;;;;17.03;69.43;103397.50;5042334;28;61717;-76
2021/12/16 11:12:23;;;;;;;;;68.50;52.50;;;;;17.09;68.70;103400.53;5056373;28;61791;-76
2021/12/16 11:14:55;;;;;;;;;63.75;53.25;;;;;17.07;67.95;103402.19;5062478;28;62473;-75
2021/12/16 11:17:23;;;;;;;;;66.50;50.00;;;;;17.07;68.08;103399.53;5061853;28;63116;-75
2021/12/16 11:19:56;;;;;;;;;60.00;47.75;;;;;17.15;68.31;103408.88;5062465;28;61949;-75
2021/12/16 11:22:31;;;;;;;;;71.25;54.25;;;;;17.21;68.23;103401.28;5062541;28;61856;-76
2021/12/16 11:25:09;;;;;;;;;64.50;49.50;;;;;17.24;67.89;103408.50;5061424;28;61885;-76
2021/12/16 11:27:36;;;;;;;;;64.00;49.50;;;;;17.27;67.88;103404.28;5061639;28;62414;-75
2021/12/16 11:30:27;;;;;;;;;55.75;43.50;;;;;17.31;66.99;103400.06;5062373;28;61720;-75
2021/12/16 11:32:55;;;;;;;;;66.25;43.00;;;;;17.40;66.32;103397.06;5060848;28;61918;-76
2021/12/16 11:35:26;;;;;;;;;49.25;40.25;;;;;17.38;66.66;103399.63;5061125;28;61784;-76
2021/12/16 11:37:51;;;;;;;;;52.50;37.75;;;;;17.40;66.99;103402.38;5061397;28;62857;-76
2021/12/16 11:40:18;;;;;;;;;49.25;35.75;;;;;17.37;65.13;103401.38;5061999;28;62140;-75
2021/12/16 11:42:57;;;;;;;;;51.00;36.00;;;;;17.37;66.07;103401.38;5060548;28;62343;-76
2021/12/16 11:45:37;;;;;;;;;47.25;40.25;;;;;17.31;64.96;103395.69;5062452;28;61724;-76
2021/12/16 11:48:04;;;;;;;;;49.50;38.50;;;;;17.32;65.59;103400.16;5061736;28;61968;-76
2021/12/16 11:50:37;;;;;;;;;35.75;32.00;;;;;17.41;65.44;103402.44;5060499;28;61873;-76
2021/12/16 11:53:04;;;;;;;;;37.00;33.00;;;;;17.30;65.73;103366.38;5060731;28;61997;-76
2021/12/16 11:55:36;;;;;;;;;38.00;36.25;;;;;17.44;64.58;103396.38;5060251;28;62000;-75
2021/12/16 11:58:03;;;;;;;;;34.25;29.75;;;;;17.41;65.13;103401.53;5056372;28;64918;-76
2021/12/16 12:00:33;;;;;;;;;42.75;37.00;;;;;17.40;64.48;103392.66;5047195;28;61862;-76
2021/12/16 12:03:00;;;;;;;;;50.25;33.00;;;;;17.37;64.43;103403.09;5060608;28;61703;-75
2021/12/16 12:05:42;;;;;;;;;42.25;33.50;;;;;17.42;64.67;103393.66;5060293;28;61934;-76
2021/12/16 12:08:10;;;;;;;;;36.00;32.50;;;;;17.46;65.25;103392.06;5061001;28;62597;-78
2021/12/16 12:10:53;;;;;;;;;43.75;39.25;;;;;17.49;64.64;103390.53;5061668;28;61898;-75
2021/12/16 12:13:20;;;;;;;;;39.25;34.50;;;;;17.54;65.03;103390.78;5060846;28;62025;-76
2021/12/16 12:16:14;;;;;;;;;45.75;38.25;;;;;17.61;65.62;103385.03;5059192;28;61889;-75
2021/12/16 12:18:45;;;;;;;;;45.50;37.25;;;;;17.64;65.12;103394.91;5059387;28;63654;-76
2021/12/16 12:21:32;;;;;;;;;37.00;32.25;;;;;17.68;65.38;103389.84;5061634;28;61958;-76
2021/12/16 12:24:02;;;;;;;;;40.00;31.50;;;;;17.68;65.04;103388.94;5061151;28;61704;-76
2021/12/16 12:26:31;;;;;;;;;39.25;29.75;;;;;17.70;64.57;103381.97;5060126;28;62366;-76
2021/12/16 12:29:01;;;;;;;;;39.25;34.25;;;;;17.70;63.70;103382.88;5059642;28;64851;-76
2021/12/16 12:31:30;;;;;;;;;32.00;25.50;;;;;17.66;64.24;103383.53;5061711;28;61854;-76
2021/12/16 12:33:56;;;;;;;;;29.50;28.75;;;;;17.71;64.50;103378.47;5061525;28;61740;-76
2021/12/16 12:36:22;;;;;;;;;34.75;28.50;;;;;17.71;64.08;103379.38;5061842;28;61752;-76
2021/12/16 12:38:48;;;;;;;;;30.75;21.75;;;;;17.90;63.15;103377.81;5059514;28;64870;-76
2021/12/16 12:41:14;;;;;;;;;37.25;31.25;;;;;17.93;62.82;103378.91;5061822;28;62022;-75
2021/12/16 12:43:40;;;;;;;;;28.50;24.25;;;;;17.89;63.06;103373.34;5061712;28;61693;-76
2021/12/16 12:46:08;;;;;;;;;28.75;25.25;;;;;17.94;63.25;103377.16;5060638;28;62237;-76
2021/12/16 12:48:36;;;;;;;;;33.25;24.50;;;;;17.91;62.46;103369.00;5059870;28;64603;-76
2021/12/16 12:51:05;;;;;;;;;31.00;25.25;;;;;17.96;63.33;103375.50;5063178;28;61882;-75
2021/12/16 12:53:50;;;;;;;;;33.75;28.25;;;;;17.97;63.37;103372.00;5065414;28;62080;-76
2021/12/16 12:56:42;;;;;;;;;30.25;25.00;;;;;17.97;62.81;103372.00;5065163;28;61840;-75
2021/12/16 12:59:11;;;;;;;;;35.75;25.00;;;;;17.95;62.40;103365.69;5045180;28;61876;-76
2021/12/16 13:01:55;;;;;;;;;31.25;24.25;;;;;17.77;63.40;103366.44;5060574;28;61985;-76
2021/12/16 13:04:32;;;;;;;;;24.00;21.00;;;;;17.77;63.44;103365.53;5044991;28;61777;-76
2021/12/16 13:07:01;;;;;;;;;34.75;28.25;;;;;17.73;63.10;103366.19;5043668;28;62108;-76
2021/12/16 13:09:29;;;;;;;;;36.00;31.00;;;;;17.73;63.02;103366.19;5044302;28;61799;-76
2021/12/16 13:11:54;;;;;;;;;40.00;28.25;;;;;17.73;62.57;103356.47;5059666;28;61796;-76
2021/12/16 13:14:35;;;;;;;;;31.00;24.00;;;;;17.71;62.22;103354.56;5060207;28;61972;-76
2021/12/16 13:31:25;;;;;;;;;25.25;22.50;;;;;17.92;61.99;103354.88;5043764;28;61768;-76
2021/12/16 13:33:55;;;;;;;;;26.50;24.75;;;;;17.83;62.67;103352.63;5043902;28;61837;-76
2021/12/16 13:36:46;;;;;;;;;29.00;24.00;;;;;18.03;62.00;103350.16;5059859;28;62025;-75
2021/12/16 13:39:17;;;;;;;;;24.25;21.25;;;;;18.05;61.77;103348.50;5044643;28;61878;-76
2021/12/16 13:42:05;;;;;;;;;24.00;24.00;;;;;18.04;61.85;103342.28;5043843;28;61850;-75
2021/12/16 13:44:51;;;;;;;;;38.75;26.25;;;;;18.07;62.00;103339.78;5044362;28;61891;-75
2021/12/16 14:02:51;;;;;;;;;26.25;19.75;;;;;17.72;62.24;103348.44;5044140;28;61837;-77
2021/12/16 14:05:45;;;;;;;;;28.00;23.25;;;;;17.65;62.34;103343.59;5043462;28;62160;-76
2021/12/16 14:08:25;;;;;;;;;36.75;28.75;;;;;17.58;62.01;103345.91;5042454;28;62005;-75
2021/12/16 14:10:55;;;;;;;;;38.25;30.50;;;;;17.59;62.36;103352.16;5043947;28;61740;-75
2021/12/16 14:31:07;;;;;;;;;31.50;25.00;;;;;17.52;63.18;103339.31;5042607;28;61941;-75
2021/12/16 14:35:40;;;;;;;;;30.75;22.00;;;;;17.46;63.15;103336.31;5043491;28;61973;-75
2021/12/16 14:38:15;;;;;;;;;28.50;23.00;;;;;17.42;63.70;103340.56;5042637;28;61969;-76
2021/12/16 14:41:08;;;;;;;;;26.25;24.00;;;;;17.40;63.28;103334.25;5041874;28;61911;-76
2021/12/16 14:43:54;;;;;;;;;40.25;30.25;;;;;17.35;63.83;103344.59;5041985;28;61981;-76
2021/12/16 14:46:28;;;;;;;;;26.75;26.00;;;;;17.35;64.13;103351.63;5043185;28;61933;-76
2021/12/16 14:48:53;;;;;;;;;34.00;32.00;;;;;17.33;64.25;103355.94;5042822;28;61870;-76
2021/12/16 14:51:19;;;;;;;;;32.25;29.75;;;;;17.30;64.36;103350.47;5043131;28;61812;-76
2021/12/16 14:53:48;;;;;;;;;35.25;29.00;;;;;17.26;64.35;103352.00;5061240;28;61952;-75
2021/12/16 14:56:28;;;;;;;;;29.50;28.25;;;;;17.26;64.66;103349.34;5061832;28;61869;-76